This is the latest recevied weather packets stored in our database for station/object KI5QWQ. If no packets are shown the sender has not sent any weather packets the latest 1 day(s).
| Time | Temp. | Humidity | Pressure | Rain* | Wind** | Luminosity | Snow |
|---|---|---|---|---|---|---|---|
| 1778040884 | - | - | - | 0 mm | 0 m/s | - | - |
| 1778040581 | - | - | - | 0 mm | 0.89 m/s, 209° | - | - |
| 1778040278 | - | - | - | 0 mm | 0.89 m/s, 209° | - | - |
| 1778039974 | - | - | - | 0 mm | 0.89 m/s, 181° | - | - |
| 1778039672 | - | - | - | 0 mm | 0.89 m/s, 146° | - | - |
| 1778039368 | - | - | - | 0 mm | 1.34 m/s, 136° | - | - |
| 1778039066 | - | - | - | 0 mm | 0.89 m/s, 187° | - | - |
| 1778038763 | - | - | - | 0 mm | 0.45 m/s, 206° | - | - |
| 1778038460 | - | - | - | 0 mm | 0.89 m/s, 154° | - | - |
| 1778038157 | - | - | - | 0 mm | 0 m/s | - | - |
| 1778037854 | - | - | - | 0 mm | 0.89 m/s, 176° | - | - |
| 1778037550 | - | - | - | 0 mm | 0.89 m/s, 189° | - | - |
| 1778037248 | - | - | - | 0 mm | 0.89 m/s, 136° | - | - |
| 1778036945 | - | - | - | 0 mm | 0.45 m/s, 174° | - | - |
| 1778036643 | - | - | - | 0 mm | 0.89 m/s, 145° | - | - |
| 1778036339 | - | - | - | 0 mm | 0 m/s | - | - |
| 1778036036 | - | - | - | 0 mm | 0.45 m/s, 149° | - | - |
| 1778035733 | - | - | - | 0 mm | 0.45 m/s, 213° | - | - |
| 1778035430 | - | - | - | 0 mm | 0.45 m/s, 189° | - | - |
| 1778035126 | - | - | - | 0 mm | 0.45 m/s, 165° | - | - |
| 1778034824 | - | - | - | 0 mm | 0.45 m/s, 160° | - | - |
| 1778034520 | - | - | - | 0 mm | 1.34 m/s, 151° | - | - |
| 1778034218 | - | - | - | 0 mm | 0 m/s | - | - |
| 1778033916 | - | - | - | 0 mm | 0.45 m/s, 209° | - | - |
| 1778033612 | - | - | - | 0 mm | 0.45 m/s, 192° | - | - |
* Rain latest hour (hover to see other rain measurements)
** Current wind speed in m/s (hover to see current wind gust speed)